Time;durP1;ratioP1;P1;durP2;ratioP2;P2;SDS_P1;SDS_P2;PMS_P1;PMS_P2;Temp;Humidity;BMP_temperature;BMP_pressure;BME280_temperature;BME280_humidity;BME280_pressure;Samples;Min_cycle;Max_cycle;Signal;HPM_P1;HPM_P2
2022/06/20 00:01:41;;;;;;;8.77;2.88;;;;;;;12.69;99.44;101329.16;5053558;28;20028;-68
2022/06/20 00:04:12;;;;;;;10.70;3.25;;;;;;;12.71;99.52;101335.28;5053631;28;20853;-69
2022/06/20 00:06:38;;;;;;;6.68;2.60;;;;;;;12.77;98.43;101347.41;5055042;28;20043;-69
2022/06/20 00:09:04;;;;;;;14.27;3.63;;;;;;;12.77;97.54;101336.72;5055618;28;20040;-69
2022/06/20 00:11:38;;;;;;;11.18;2.60;;;;;;;12.65;97.76;101333.88;5053786;28;20048;-68
2022/06/20 00:14:04;;;;;;;13.40;2.92;;;;;;;12.77;97.82;101337.56;5052433;28;20270;-69
2022/06/20 00:16:33;;;;;;;10.45;3.35;;;;;;;12.82;99.02;101342.63;5052521;28;20060;-69
2022/06/20 00:18:59;;;;;;;22.95;2.67;;;;;;;12.73;98.13;101348.56;5052759;28;20109;-68
2022/06/20 00:21:25;;;;;;;7.20;3.30;;;;;;;12.72;99.55;101354.88;5050179;28;20132;-69
2022/06/20 00:23:51;;;;;;;10.02;3.22;;;;;;;12.72;98.40;101355.72;5052044;28;20825;-69
2022/06/20 00:26:18;;;;;;;12.30;2.65;;;;;;;12.66;98.14;101350.78;5051514;28;20820;-69
2022/06/20 00:28:44;;;;;;;9.05;2.92;;;;;;;12.55;98.80;101350.59;5052660;28;20033;-68
2022/06/20 00:31:11;;;;;;;10.65;3.80;;;;;;;12.56;99.30;101349.66;5051761;28;20573;-68
2022/06/20 00:33:37;;;;;;;11.00;2.50;;;;;;;12.64;97.75;101356.22;5052263;28;20727;-68
2022/06/20 00:36:03;;;;;;;14.15;2.92;;;;;;;12.48;98.25;101352.78;5052417;28;20166;-68
2022/06/20 00:38:29;;;;;;;9.73;2.50;;;;;;;12.53;97.72;101353.38;5052339;28;20044;-68
2022/06/20 00:40:58;;;;;;;15.70;3.35;;;;;;;12.50;97.16;101350.00;5051926;28;20053;-69
2022/06/20 00:43:33;;;;;;;7.97;2.65;;;;;;;12.50;97.76;101353.56;5066437;28;20100;-69
2022/06/20 00:46:03;;;;;;;7.80;2.80;;;;;;;12.55;96.42;101364.84;5051810;28;20382;-69
2022/06/20 00:48:45;;;;;;;12.20;3.17;;;;;;;12.65;97.18;101368.66;5053188;28;20036;-69
2022/06/20 00:51:25;;;;;;;8.32;2.60;;;;;;;12.66;97.35;101356.13;5054346;28;20044;-69
2022/06/20 00:53:58;;;;;;;8.63;2.92;;;;;;;12.68;97.25;101352.38;5055935;28;20042;-69
2022/06/20 00:56:36;;;;;;;11.43;2.63;;;;;;;12.69;98.17;101369.28;5041415;28;20188;-68
2022/06/20 00:59:09;;;;;;;8.68;2.35;;;;;;;12.77;97.54;101364.31;5053052;28;20680;-68
2022/06/20 01:01:38;;;;;;;15.10;2.92;;;;;;;12.88;97.84;101353.78;5055708;28;20043;-68
2022/06/20 01:04:11;;;;;;;8.70;2.72;;;;;;;12.84;97.38;101356.75;5054993;28;20036;-68
2022/06/20 01:06:45;;;;;;;9.85;3.00;;;;;;;12.87;97.71;101367.28;5042199;28;20047;-68
2022/06/20 01:09:13;;;;;;;10.13;3.00;;;;;;;12.92;96.49;101370.50;5055989;28;20127;-68
2022/06/20 01:11:53;;;;;;;10.00;3.53;;;;;;;13.01;98.35;101390.47;5055948;28;20032;-68
2022/06/20 01:14:34;;;;;;;10.00;3.03;;;;;;;13.04;96.05;101382.22;5055777;28;20156;-69
2022/06/20 01:17:04;;;;;;;11.98;3.70;;;;;;;13.05;97.12;101392.88;5044518;28;20185;-69
2022/06/20 01:19:32;;;;;;;12.90;2.65;;;;;;;13.03;97.44;101415.31;5055624;28;20686;-68
2022/06/20 01:22:06;;;;;;;7.13;2.72;;;;;;;13.02;98.57;101421.66;5070681;28;20065;-69
2022/06/20 01:24:46;;;;;;;17.05;4.03;;;;;;;12.97;98.44;101427.28;5055615;28;20071;-68
2022/06/20 01:27:30;;;;;;;18.10;2.60;;;;;;;12.83;98.78;101459.41;5054840;28;20095;-69
2022/06/20 01:29:57;;;;;;;10.85;3.33;;;;;;;12.79;100.00;101460.56;5055056;28;20040;-69
2022/06/20 01:32:23;;;;;;;11.15;3.15;;;;;;;12.81;99.20;101485.44;5055105;28;20048;-68
2022/06/20 01:34:49;;;;;;;13.77;3.40;;;;;;;12.91;100.00;101502.66;5055747;28;20024;-68
2022/06/20 01:37:25;;;;;;;11.25;3.67;;;;;;;12.89;99.30;101507.22;5054232;28;20049;-68
2022/06/20 01:39:58;;;;;;;8.90;3.05;;;;;;;12.98;99.47;101508.47;5054777;28;20045;-69
2022/06/20 01:42:24;;;;;;;9.75;2.92;;;;;;;12.95;98.87;101496.13;5041223;28;20036;-69
2022/06/20 01:44:55;;;;;;;11.85;3.28;;;;;;;12.96;99.00;101496.03;5054102;28;20064;-70
2022/06/20 01:47:21;;;;;;;9.53;3.67;;;;;;;12.96;98.63;101504.06;5054652;28;20037;-68
2022/06/20 01:49:49;;;;;;;9.23;2.70;;;;;;;12.95;98.80;101490.75;5055755;28;20470;-68
2022/06/20 01:52:28;;;;;;;14.70;3.20;;;;;;;12.96;98.67;101487.16;5054548;28;20037;-68
2022/06/20 01:55:25;;;;;;;8.93;2.80;;;;;;;12.95;98.28;101475.59;5055232;28;20432;-67
2022/06/20 01:57:58;;;;;;;11.73;2.83;;;;;;;12.99;99.42;101476.22;5044952;28;20052;-68
2022/06/20 02:00:28;;;;;;;10.80;3.08;;;;;;;12.93;98.99;101474.81;5052385;28;20045;-68
2022/06/20 02:03:01;;;;;;;6.75;2.85;;;;;;;12.80;99.91;101456.94;5053870;28;20037;-69
2022/06/20 02:05:29;;;;;;;7.70;3.17;;;;;;;12.63;100.00;101463.34;5053740;28;20085;-69
2022/06/20 02:07:58;;;;;;;8.80;2.88;;;;;;;12.55;100.00;101453.13;5054509;28;20032;-68
2022/06/20 02:10:30;;;;;;;14.43;3.15;;;;;;;12.53;99.95;101444.31;5053198;28;20179;-68
2022/06/20 02:12:58;;;;;;;9.82;2.80;;;;;;;12.49;100.00;101452.63;5053651;28;20521;-69
2022/06/20 02:15:26;;;;;;;7.55;3.53;;;;;;;12.09;100.00;101450.56;5053643;28;20028;-68
2022/06/20 02:17:53;;;;;;;10.50;3.45;;;;;;;12.11;100.00;101442.47;5053404;28;20036;-68
2022/06/20 02:20:21;;;;;;;10.43;3.08;;;;;;;12.06;100.00;101448.09;5053552;28;20107;-69
2022/06/20 02:22:49;;;;;;;6.90;3.03;;;;;;;12.15;100.00;101433.31;5054005;28;20054;-70
2022/06/20 02:25:19;;;;;;;9.48;3.35;;;;;;;12.14;100.00;101436.91;5053396;28;20036;-70
2022/06/20 02:27:58;;;;;;;10.75;3.65;;;;;;;12.03;100.00;101434.03;5054183;28;20040;-69
2022/06/20 02:30:24;;;;;;;12.63;3.20;;;;;;;12.09;100.00;101433.66;5051897;28;20055;-70
2022/06/20 02:32:57;;;;;;;7.53;3.05;;;;;;;12.06;100.00;101434.72;5053254;28;20152;-69
2022/06/20 02:35:22;;;;;;;9.55;2.90;;;;;;;12.01;100.00;101449.31;5067760;28;20977;-69
2022/06/20 02:37:49;;;;;;;8.35;3.20;;;;;;;12.03;100.00;101444.72;5069175;28;20048;-69
2022/06/20 02:40:18;;;;;;;9.13;3.20;;;;;;;12.02;100.00;101426.97;5068295;28;20041;-69
2022/06/20 02:42:58;;;;;;;7.75;3.08;;;;;;;11.81;100.00;101415.72;5053126;28;20103;-69
2022/06/20 02:45:25;;;;;;;13.15;3.63;;;;;;;11.84;100.00;101418.22;5051110;28;20143;-70
2022/06/20 02:47:55;;;;;;;7.75;2.80;;;;;;;11.83;100.00;101400.47;5052432;28;20036;-70
2022/06/20 02:50:33;;;;;;;11.88;4.15;;;;;;;11.83;100.00;101392.47;5052550;28;20058;-69
2022/06/20 02:53:04;;;;;;;12.00;3.75;;;;;;;11.85;100.00;101394.09;5051565;28;20036;-70
2022/06/20 02:55:32;;;;;;;9.23;4.05;;;;;;;11.93;100.00;101401.66;5084637;28;20044;-69
2022/06/20 02:58:01;;;;;;;7.05;3.47;;;;;;;12.01;100.00;101388.69;5051886;28;20136;-70
2022/06/20 03:00:34;;;;;;;13.77;3.63;;;;;;;12.11;100.00;101378.31;5051635;28;20131;-69
2022/06/20 03:03:05;;;;;;;10.27;3.63;;;;;;;12.18;100.00;101371.63;5052456;28;20048;-69
2022/06/20 03:05:31;;;;;;;12.10;4.45;;;;;;;12.14;100.00;101356.72;5051419;28;20478;-70
2022/06/20 03:07:56;;;;;;;15.45;5.20;;;;;;;12.14;100.00;101352.22;5051806;28;20596;-70
2022/06/20 03:10:28;;;;;;;14.23;4.78;;;;;;;12.10;100.00;101345.38;5083592;28;20473;-70
2022/06/20 03:12:56;;;;;;;10.85;4.18;;;;;;;12.05;100.00;101334.09;5051082;28;20184;-70
2022/06/20 03:15:22;;;;;;;9.27;4.32;;;;;;;12.08;100.00;101343.72;5050776;28;20535;-69
2022/06/20 03:17:52;;;;;;;9.57;4.22;;;;;;;12.08;100.00;101333.03;5052792;28;20032;-70
2022/06/20 03:20:20;;;;;;;17.63;4.97;;;;;;;12.07;100.00;101332.19;5067321;28;20039;-70
2022/06/20 03:22:55;;;;;;;14.23;4.38;;;;;;;12.15;100.00;101313.00;5052618;28;20052;-69
2022/06/20 03:25:21;;;;;;;12.55;4.43;;;;;;;12.23;100.00;101312.50;5051801;28;20154;-69
2022/06/20 03:27:51;;;;;;;16.98;4.32;;;;;;;12.35;100.00;101311.72;5052242;28;20064;-69
2022/06/20 03:30:29;;;;;;;12.07;4.80;;;;;;;12.42;100.00;101319.28;5049402;28;20044;-69
2022/06/20 03:32:56;;;;;;;17.20;4.20;;;;;;;12.41;100.00;101316.72;5051348;28;20336;-69
2022/06/20 03:35:21;;;;;;;14.88;3.70;;;;;;;12.30;100.00;101303.13;5049957;28;20032;-70
2022/06/20 03:37:47;;;;;;;10.05;3.55;;;;;;;12.38;100.00;101300.84;5051426;28;20044;-69
2022/06/20 03:40:14;;;;;;;6.22;3.42;;;;;;;12.42;100.00;101300.56;5050812;28;20235;-69
2022/06/20 03:42:39;;;;;;;17.27;4.57;;;;;;;12.47;100.00;101304.75;5052379;28;20827;-68
2022/06/20 03:45:07;;;;;;;9.48;3.22;;;;;;;12.55;100.00;101314.00;5050960;28;20051;-68
2022/06/20 03:47:44;;;;;;;8.73;3.17;;;;;;;12.60;100.00;101319.03;5051847;28;20028;-68
2022/06/20 03:50:24;;;;;;;9.93;2.97;;;;;;;12.62;99.10;101325.19;5051115;28;20043;-70
2022/06/20 03:52:58;;;;;;;16.52;3.10;;;;;;;12.55;100.00;101322.03;5034936;28;20029;-70
2022/06/20 03:55:33;;;;;;;15.73;5.53;;;;;;;12.57;99.15;101311.22;5046285;28;20068;-70
2022/06/20 03:58:23;;;;;;;11.45;3.53;;;;;;;12.62;99.32;101303.78;5051216;28;20032;-69
2022/06/20 04:01:13;;;;;;;17.23;4.32;;;;;;;12.48;99.34;101285.91;5052221;28;20037;-69
2022/06/20 04:03:47;;;;;;;15.13;4.88;;;;;;;12.42;99.61;101275.63;5051595;28;20043;-69
2022/06/20 04:06:29;;;;;;;18.42;5.70;;;;;;;12.53;98.60;101277.59;5037291;28;20047;-69
2022/06/20 04:11:49;;;;;;;20.15;5.97;;;;;;;12.51;96.87;101303.59;5051972;28;20117;-69
2022/06/20 04:14:46;;;;;;;16.60;4.82;;;;;;;12.57;96.30;101309.41;5050295;28;20795;-68
2022/06/20 04:20:31;;;;;;;4.72;3.25;;;;;;;13.00;94.81;101316.44;5040754;28;20040;-69
2022/06/20 04:22:58;;;;;;;12.98;4.13;;;;;;;13.30;94.50;101326.97;5039134;28;20578;-69
2022/06/20 04:25:38;;;;;;;7.10;3.50;;;;;;;13.47;92.35;101342.78;5054990;28;20138;-69
2022/06/20 04:28:18;;;;;;;12.52;2.88;;;;;;;13.65;90.66;101346.03;5054786;28;20105;-70
2022/06/20 04:30:54;;;;;;;14.13;3.42;;;;;;;13.82;89.54;101344.91;5044102;28;20036;-71
2022/06/20 04:33:33;;;;;;;14.73;4.38;;;;;;;13.95;89.05;101345.75;5055020;28;20037;-70
2022/06/20 04:35:58;;;;;;;16.60;4.10;;;;;;;13.95;90.27;101343.91;5052991;28;20074;-69
2022/06/20 04:38:30;;;;;;;16.38;4.18;;;;;;;14.10;90.32;101347.34;5055379;28;20528;-70
2022/06/20 04:41:02;;;;;;;12.88;3.47;;;;;;;14.27;88.67;101359.59;5055397;28;20135;-68
2022/06/20 04:43:57;;;;;;;9.02;3.88;;;;;;;14.34;88.72;101374.28;5051785;28;20047;-69
2022/06/20 04:46:33;;;;;;;5.68;3.00;;;;;;;14.47;87.40;101366.25;5054471;28;20791;-68
2022/06/20 04:49:00;;;;;;;10.52;3.45;;;;;;;14.67;87.80;101371.06;5056361;28;20387;-68
2022/06/20 04:51:38;;;;;;;7.35;2.90;;;;;;;14.42;87.76;101377.28;5056754;28;20896;-69
2022/06/20 04:54:05;;;;;;;10.75;2.80;;;;;;;14.49;89.53;101375.06;5057325;28;20049;-69
2022/06/20 04:56:31;;;;;;;9.68;3.75;;;;;;;14.82;85.00;101362.88;5056326;28;20044;-68
2022/06/20 04:59:03;;;;;;;15.70;3.85;;;;;;;15.27;85.10;101367.53;5055882;28;20041;-70
2022/06/20 05:01:32;;;;;;;6.72;3.63;;;;;;;15.61;82.58;101370.34;5052946;28;20028;-69
2022/06/20 05:04:19;;;;;;;10.77;3.15;;;;;;;15.96;83.25;101367.66;5055230;28;20044;-69
2022/06/20 05:06:45;;;;;;;11.43;3.13;;;;;;;16.55;79.16;101372.00;5052401;28;20082;-69
2022/06/20 05:09:19;;;;;;;9.20;2.55;;;;;;;16.17;78.44;101383.13;5052380;28;20460;-69
2022/06/20 05:11:50;;;;;;;11.27;3.10;;;;;;;15.56;83.15;101383.28;5051823;28;20614;-69
2022/06/20 05:14:31;;;;;;;9.55;2.67;;;;;;;15.65;83.31;101392.50;5047262;28;20040;-69
2022/06/20 05:16:57;;;;;;;11.52;3.25;;;;;;;15.49;83.74;101400.84;5050231;28;20036;-68
2022/06/20 05:19:31;;;;;;;5.25;2.85;;;;;;;15.57;82.60;101411.03;5048321;28;20114;-68
2022/06/20 05:22:01;;;;;;;7.65;2.97;;;;;;;15.53;83.74;101411.25;5049703;28;20048;-68
2022/06/20 05:24:33;;;;;;;7.47;2.83;;;;;;;15.35;83.41;101404.56;5045292;28;20045;-68
2022/06/20 05:27:06;;;;;;;12.77;3.47;;;;;;;15.15;82.92;101397.13;5048647;28;20040;-70
2022/06/20 05:29:34;;;;;;;9.27;2.85;;;;;;;15.06;83.35;101400.47;5052114;28;20032;-70
2022/06/20 05:32:03;;;;;;;8.25;2.45;;;;;;;16.36;77.51;101390.59;5049750;28;20053;-70
2022/06/20 05:34:52;;;;;;;11.15;2.78;;;;;;;18.26;70.34;101381.97;5049261;28;20040;-71
2022/06/20 05:37:40;;;;;;;7.60;2.30;;;;;;;19.38;66.05;101390.94;5051106;28;20079;-70
2022/06/20 05:40:14;;;;;;;5.85;1.80;;;;;;;18.56;67.08;101394.63;5047831;28;20524;-71
2022/06/20 05:42:40;;;;;;;9.90;2.35;;;;;;;19.50;62.94;101394.34;5052081;28;20037;-70
2022/06/20 05:45:17;;;;;;;4.15;1.92;;;;;;;18.63;68.88;101400.38;5048979;28;20063;-70
2022/06/20 05:47:49;;;;;;;7.50;1.83;;;;;;;18.49;68.07;101398.03;5034444;28;20151;-71
2022/06/20 05:50:14;;;;;;;6.80;1.83;;;;;;;18.09;66.74;101413.16;5050885;28;20049;-71
2022/06/20 05:52:42;;;;;;;6.93;1.73;;;;;;;18.42;68.14;101411.19;5051487;28;20551;-70
2022/06/20 05:55:15;;;;;;;7.85;1.83;;;;;;;18.57;68.04;101414.41;5050219;28;20036;-71
2022/06/20 05:57:43;;;;;;;7.13;1.90;;;;;;;18.28;68.29;101414.25;5049736;28;20079;-70
2022/06/20 06:00:35;;;;;;;8.07;1.65;;;;;;;18.26;66.53;101422.47;5050800;28;20131;-70
2022/06/20 06:03:30;;;;;;;;;;;;;;;18.20;66.17;101428.41;5050259;28;20364;-70
2022/06/20 06:06:07;;;;;;;9.55;2.60;;;;;;;18.13;66.29;101429.94;5045784;28;19955;-70
2022/06/20 06:08:48;;;;;;;7.68;2.25;;;;;;;18.35;66.66;101423.53;5050627;28;20040;-70
2022/06/20 06:11:25;;;;;;;4.90;1.83;;;;;;;19.99;61.42;101416.88;5048218;28;20320;-70
2022/06/20 06:14:15;;;;;;;7.75;2.30;;;;;;;20.04;63.19;101431.69;5051135;28;20031;-70
2022/06/20 06:16:51;;;;;;;6.80;1.83;;;;;;;19.65;63.76;101425.41;5049380;28;20040;-69
2022/06/20 06:19:38;;;;;;;4.03;1.60;;;;;;;18.59;65.16;101434.91;5050382;28;20370;-69
2022/06/20 06:22:15;;;;;;;7.90;1.77;;;;;;;17.60;68.53;101432.59;5041435;28;20043;-70
2022/06/20 06:24:44;;;;;;;10.13;2.67;;;;;;;17.95;69.51;101435.06;5050852;28;20863;-70
2022/06/20 06:27:18;;;;;;;8.50;2.42;;;;;;;17.94;67.87;101436.03;5041652;28;20648;-68
2022/06/20 06:29:50;;;;;;;7.50;2.17;;;;;;;18.03;69.86;101440.66;5051403;28;20041;-68
2022/06/20 06:32:21;;;;;;;4.05;2.03;;;;;;;18.17;68.10;101441.31;5049266;28;20048;-69
2022/06/20 06:35:09;;;;;;;8.43;1.67;;;;;;;18.69;65.84;101442.22;5052228;28;20044;-69
2022/06/20 06:38:02;;;;;;;6.03;1.92;;;;;;;17.53;69.38;101447.59;5039723;28;20044;-69
2022/06/20 06:40:37;;;;;;;4.13;1.63;;;;;;;17.43;71.31;101452.03;5049574;28;20080;-69
2022/06/20 06:43:16;;;;;;;9.55;2.05;;;;;;;17.47;70.34;101458.84;5050094;28;20040;-69
2022/06/20 06:45:42;;;;;;;7.35;2.45;;;;;;;17.83;70.48;101460.38;5050842;28;20242;-69
2022/06/20 06:48:16;;;;;;;8.95;2.58;;;;;;;18.17;68.31;101450.25;5049930;28;20208;-69
2022/06/20 06:50:47;;;;;;;11.23;2.63;;;;;;;17.96;70.92;101454.78;5051361;28;20046;-68
2022/06/20 06:53:32;;;;;;;8.60;2.63;;;;;;;19.00;70.17;101452.03;5049522;28;20044;-70
2022/06/20 06:56:10;;;;;;;12.77;2.42;;;;;;;18.93;64.53;101456.28;5050491;28;20055;-69
2022/06/20 06:59:03;;;;;;;7.60;1.80;;;;;;;18.48;64.94;101463.84;5051253;28;20511;-69
2022/06/20 07:01:36;;;;;;;10.85;2.30;;;;;;;18.28;65.59;101452.06;5039823;28;20051;-69
2022/06/20 07:04:19;;;;;;;8.32;2.03;;;;;;;18.28;65.84;101455.63;5049717;28;20829;-69
2022/06/20 07:06:50;;;;;;;4.70;1.92;;;;;;;17.41;67.09;101452.13;5050846;28;20028;-70
2022/06/20 07:09:25;;;;;;;15.93;2.97;;;;;;;17.47;70.25;101450.78;5065343;28;20029;-68
2022/06/20 07:12:17;;;;;;;10.45;2.22;;;;;;;18.32;66.16;101454.38;5051046;28;20044;-69
2022/06/20 07:14:47;;;;;;;5.55;2.47;;;;;;;17.56;67.05;101455.41;5050996;28;20037;-69
2022/06/20 07:17:22;;;;;;;6.45;2.33;;;;;;;17.27;68.50;101461.38;5050271;28;20037;-69
2022/06/20 07:19:51;;;;;;;8.48;2.40;;;;;;;18.43;67.45;101463.38;5051078;28;20166;-69
2022/06/20 07:22:20;;;;;;;5.20;1.90;;;;;;;17.84;66.26;101468.34;5048775;28;20041;-69
2022/06/20 07:24:46;;;;;;;9.85;2.10;;;;;;;17.21;67.16;101469.94;5032788;28;20056;-68
2022/06/20 07:27:20;;;;;;;6.53;2.38;;;;;;;17.03;68.00;101461.53;5050120;28;20044;-69
2022/06/20 07:29:58;;;;;;;9.52;3.35;;;;;;;17.22;68.85;101454.63;5050484;28;20044;-69
2022/06/20 07:32:33;;;;;;;7.53;2.47;;;;;;;17.95;69.60;101453.09;5049914;28;20119;-69
2022/06/20 07:35:05;;;;;;;13.50;2.55;;;;;;;19.17;63.41;101453.19;5049809;28;20849;-69
2022/06/20 07:37:37;;;;;;;6.75;2.17;;;;;;;18.72;64.47;101448.19;5049761;28;20044;-69
2022/06/20 07:40:12;;;;;;;;;;;;;;;18.08;64.85;101454.63;5051188;28;20064;-69
2022/06/20 07:42:54;;;;;;;5.65;2.00;;;;;;;17.93;65.79;101464.03;5048231;28;19921;-69
2022/06/20 07:45:28;;;;;;;10.00;2.25;;;;;;;17.56;65.53;101460.81;5049381;28;20367;-69
2022/06/20 07:47:59;;;;;;;10.82;3.10;;;;;;;17.48;67.21;101461.44;5049304;28;20149;-69
2022/06/20 07:50:34;;;;;;;6.88;2.20;;;;;;;16.97;68.29;101462.03;5049387;28;20051;-69
2022/06/20 07:53:11;;;;;;;9.38;2.42;;;;;;;18.17;67.70;101455.66;5049820;28;20055;-69
2022/06/20 07:55:40;;;;;;;8.38;2.28;;;;;;;18.57;66.43;101461.16;5065273;28;20041;-69
2022/06/20 07:58:15;;;;;;;10.60;3.15;;;;;;;19.60;64.04;101452.06;5049143;28;20190;-69
2022/06/20 08:00:47;;;;;;;5.22;2.10;;;;;;;19.18;59.38;101456.75;5050280;28;20662;-69
2022/06/20 08:03:31;;;;;;;6.55;1.67;;;;;;;19.61;55.25;101453.75;5049912;28;20068;-69
2022/06/20 08:06:19;;;;;;;7.38;2.20;;;;;;;19.91;56.02;101453.63;5049740;28;20036;-69
2022/06/20 08:08:53;;;;;;;8.23;2.45;;;;;;;19.88;57.40;101455.75;5038440;28;20563;-68
2022/06/20 08:11:43;;;;;;;7.35;2.03;;;;;;;20.68;54.58;101455.38;5065104;28;20040;-69
2022/06/20 08:14:35;;;;;;;4.13;1.75;;;;;;;21.61;54.13;101450.75;5049012;28;20079;-69
2022/06/20 08:17:08;;;;;;;4.43;2.10;;;;;;;19.91;55.01;101455.47;5048104;28;20038;-68
2022/06/20 08:19:35;;;;;;;4.90;2.08;;;;;;;19.87;56.59;101459.47;5049431;28;20047;-69
2022/06/20 08:22:20;;;;;;;9.07;2.03;;;;;;;19.24;58.65;101462.50;5050086;28;20113;-68
2022/06/20 08:24:55;;;;;;;3.80;1.88;;;;;;;19.18;62.45;101473.88;5050219;28;20055;-69
2022/06/20 08:27:33;;;;;;;3.70;2.03;;;;;;;19.07;59.57;101463.97;5048379;28;20055;-68
2022/06/20 08:30:10;;;;;;;6.70;2.67;;;;;;;18.58;62.21;101472.84;5049738;28;20048;-71
2022/06/20 08:32:50;;;;;;;7.53;2.40;;;;;;;18.30;62.09;101477.94;5050435;28;20056;-70
2022/06/20 08:35:29;;;;;;;12.00;3.13;;;;;;;18.92;61.19;101476.16;5048785;28;20038;-71
2022/06/20 08:37:57;;;;;;;6.90;2.50;;;;;;;19.62;59.74;101474.41;5050047;28;20036;-71
2022/06/20 08:40:36;;;;;;;9.02;3.10;;;;;;;19.81;58.54;101477.13;5047411;28;20470;-70
2022/06/20 08:43:31;;;;;;;7.13;2.97;;;;;;;20.27;57.09;101474.69;5047946;28;20845;-70
2022/06/20 08:46:33;;;;;;;10.45;2.58;;;;;;;21.05;52.26;101459.94;5041627;28;20543;-70
2022/06/20 08:49:20;;;;;;;8.73;3.20;;;;;;;20.95;52.71;101472.69;5048752;28;20036;-70
2022/06/20 08:52:07;;;;;;;9.55;3.13;;;;;;;20.13;52.81;101482.28;5050147;28;20045;-70
2022/06/20 08:54:51;;;;;;;9.38;2.50;;;;;;;19.80;54.90;101488.97;5048751;28;20322;-71
2022/06/20 08:57:35;;;;;;;7.07;2.78;;;;;;;19.34;55.17;101487.72;5060645;28;20040;-70
2022/06/20 09:00:23;;;;;;;9.15;3.25;;;;;;;19.25;54.33;101498.50;5049120;28;20089;-71
2022/06/20 09:03:17;;;;;;;8.70;3.85;;;;;;;19.41;55.93;101499.66;5048955;28;20078;-70
2022/06/20 09:06:04;;;;;;;8.05;2.92;;;;;;;20.05;54.38;101497.53;5048630;28;20123;-71
2022/06/20 09:09:06;;;;;;;6.68;2.65;;;;;;;19.65;52.96;101499.34;5049124;28;20048;-70
2022/06/20 09:11:59;;;;;;;7.60;2.53;;;;;;;20.79;51.31;101502.28;5067704;28;20844;-69
2022/06/20 09:14:27;;;;;;;9.68;2.72;;;;;;;21.09;55.09;101496.59;5052209;28;20045;-70
2022/06/20 09:17:12;;;;;;;6.28;2.65;;;;;;;21.69;50.74;101497.00;5051668;28;20117;-70
2022/06/20 09:19:45;;;;;;;6.13;2.40;;;;;;;21.01;47.60;101495.63;5053201;28;20044;-71
2022/06/20 09:22:24;;;;;;;5.70;2.50;;;;;;;20.34;49.62;101502.91;5052729;28;20040;-70
2022/06/20 09:25:17;;;;;;;6.78;2.75;;;;;;;20.20;49.71;101512.34;5053205;28;20155;-70
2022/06/20 09:28:09;;;;;;;6.22;2.15;;;;;;;20.91;49.92;101509.22;5053007;28;20067;-70
2022/06/20 09:30:41;;;;;;;;;;;;;;;20.92;49.83;101514.50;5040447;28;20132;-70
2022/06/20 09:34:00;;;;;;;6.00;2.53;;;;;;;22.01;48.16;101502.91;5052168;28;19927;-71
2022/06/20 09:36:47;;;;;;;6.93;3.28;;;;;;;22.75;50.47;101487.03;5028055;28;20291;-70
2022/06/20 09:39:32;;;;;;;7.38;2.60;;;;;;;22.34;45.94;101502.22;5048346;28;20071;-70
2022/06/20 09:42:16;;;;;;;7.35;2.28;;;;;;;21.32;52.10;101501.66;5049330;28;20075;-71
2022/06/20 09:44:47;;;;;;;6.35;2.47;;;;;;;20.99;49.12;101511.22;5029113;28;20061;-70
2022/06/20 09:47:38;;;;;;;5.67;2.53;;;;;;;20.78;47.34;101512.25;5045966;28;20040;-71
2022/06/20 09:50:36;;;;;;;7.93;2.78;;;;;;;19.97;47.80;101513.59;5028711;28;20535;-70
2022/06/20 09:53:32;;;;;;;6.35;2.63;;;;;;;21.00;48.24;101515.63;5038790;28;20055;-71
2022/06/20 09:56:22;;;;;;;6.00;2.28;;;;;;;21.48;47.26;101509.97;5049274;28;20044;-70
2022/06/20 09:59:15;;;;;;;8.55;2.80;;;;;;;21.95;45.93;101507.09;5049520;28;20044;-70
2022/06/20 10:02:16;;;;;;;5.55;2.50;;;;;;;22.26;45.13;101504.84;5028917;28;20041;-70
2022/06/20 10:04:59;;;;;;;7.63;2.45;;;;;;;22.25;43.09;101507.75;5043503;28;20454;-71
2022/06/20 10:07:50;;;;;;;3.92;2.05;;;;;;;22.04;44.15;101506.19;5048951;28;20414;-71
2022/06/20 10:10:38;;;;;;;8.80;2.70;;;;;;;21.81;46.07;101511.19;5049462;28;20099;-71
2022/06/20 10:13:13;;;;;;;6.97;2.22;;;;;;;21.67;50.07;101519.88;5051644;28;20079;-70
2022/06/20 10:16:16;;;;;;;6.10;2.13;;;;;;;21.54;46.63;101519.41;5051740;28;20474;-70
2022/06/20 10:18:46;;;;;;;9.40;2.22;;;;;;;21.53;45.91;101518.50;5043574;28;20147;-70
2022/06/20 10:21:21;;;;;;;8.07;2.53;;;;;;;21.58;47.71;101518.06;5050153;28;20040;-70
2022/06/20 10:24:11;;;;;;;5.40;2.40;;;;;;;21.85;45.09;101512.59;5052201;28;20118;-70
2022/06/20 10:27:00;;;;;;;14.63;2.30;;;;;;;22.20;45.01;101514.50;5051633;28;20799;-70
2022/06/20 10:29:54;;;;;;;5.22;2.13;;;;;;;22.32;43.17;101515.09;5051857;28;20669;-70
2022/06/20 10:32:40;;;;;;;10.82;2.28;;;;;;;22.68;44.94;101515.88;5038792;28;20052;-69
2022/06/20 10:35:19;;;;;;;5.65;2.20;;;;;;;21.02;49.43;101527.16;5049148;28;20044;-69
2022/06/20 10:38:08;;;;;;;6.00;2.47;;;;;;;20.89;46.13;101528.38;5051928;28;20809;-70
2022/06/20 10:41:12;;;;;;;4.97;2.08;;;;;;;20.75;49.54;101530.69;5050140;28;20033;-71
2022/06/20 10:44:05;;;;;;;8.48;2.72;;;;;;;20.12;49.16;101537.41;5031361;28;20457;-70
2022/06/20 10:46:48;;;;;;;4.72;2.05;;;;;;;21.08;43.66;101534.69;5047105;28;20044;-70
2022/06/20 10:49:15;;;;;;;4.90;1.70;;;;;;;21.38;40.15;101528.19;5050575;28;20049;-71
2022/06/20 10:52:17;;;;;;;7.13;1.45;;;;;;;21.18;45.08;101527.38;5051518;28;20166;-70
2022/06/20 10:54:52;;;;;;;3.13;1.55;;;;;;;21.07;43.02;101536.56;5050773;28;20037;-70
2022/06/20 10:57:55;;;;;;;5.57;1.88;;;;;;;22.11;42.53;101522.72;5049889;28;20555;-71
2022/06/20 11:00:25;;;;;;;3.28;1.83;;;;;;;22.19;43.39;101525.53;5049865;28;20055;-70
2022/06/20 11:03:09;;;;;;;7.15;2.55;;;;;;;21.66;45.56;101537.16;5050388;28;20032;-70
2022/06/20 11:06:14;;;;;;;6.68;1.90;;;;;;;20.34;47.97;101535.44;5045323;28;20045;-69
2022/06/20 11:08:39;;;;;;;6.72;2.20;;;;;;;21.28;47.15;101540.91;5049425;28;20359;-70
2022/06/20 11:11:27;;;;;;;6.47;1.90;;;;;;;22.74;41.93;101527.97;5049579;28;20827;-70
2022/06/20 11:14:14;;;;;;;2.70;1.27;;;;;;;21.98;44.31;101534.78;5049475;28;20202;-70
2022/06/20 11:16:53;;;;;;;6.72;2.20;;;;;;;22.80;46.71;101538.22;5038650;28;20836;-70
2022/06/20 11:19:23;;;;;;;5.90;2.17;;;;;;;21.91;43.81;101535.56;5049995;28;20029;-69
2022/06/20 11:21:58;;;;;;;8.00;1.48;;;;;;;20.30;46.27;101552.97;5048616;28;20970;-70
2022/06/20 11:24:48;;;;;;;3.55;1.63;;;;;;;20.48;47.72;101555.81;5048292;28;20756;-69
2022/06/20 11:27:38;;;;;;;4.70;1.52;;;;;;;21.81;43.29;101540.22;5050555;28;20097;-70
2022/06/20 11:30:22;;;;;;;5.78;1.63;;;;;;;21.48;41.13;101547.13;5048766;28;20048;-69
2022/06/20 11:33:21;;;;;;;6.82;1.65;;;;;;;21.13;43.61;101554.09;5050439;28;20060;-70
2022/06/20 11:36:03;;;;;;;7.32;2.10;;;;;;;22.00;39.74;101547.38;5050865;28;20029;-70
2022/06/20 11:38:31;;;;;;;;;;;;;;;21.76;41.10;101546.09;5049884;28;20093;-70
2022/06/20 11:41:05;;;;;;;4.03;1.88;;;;;;;22.18;40.40;101554.53;5049212;28;20253;-70
2022/06/20 11:44:06;;;;;;;11.85;1.70;;;;;;;22.70;41.90;101557.38;5049115;28;20423;-70
2022/06/20 11:46:50;;;;;;;5.18;2.00;;;;;;;22.37;41.96;101556.25;5026312;28;20182;-69
2022/06/20 11:49:17;;;;;;;3.78;1.58;;;;;;;22.36;42.68;101561.84;5026031;28;20082;-70
2022/06/20 11:52:18;;;;;;;6.65;1.80;;;;;;;22.45;42.98;101560.91;5027144;28;20096;-70
2022/06/20 11:54:48;;;;;;;6.25;2.30;;;;;;;22.15;43.68;101565.72;4968238;28;20082;-70
2022/06/20 11:57:20;;;;;;;8.98;1.90;;;;;;;21.75;48.03;101578.84;4965999;28;20050;-70
2022/06/20 12:00:05;;;;;;;8.57;2.22;;;;;;;21.98;49.92;101575.53;4967224;28;20801;-70
2022/06/20 12:02:52;;;;;;;;;;;;;;;22.09;45.28;101569.03;4968071;28;20839;-70
2022/06/20 12:05:17;;;;;;;8.98;2.35;;;;;;;22.20;52.91;101570.69;4967720;28;20304;-70
2022/06/20 12:07:56;;;;;;;6.75;2.00;;;;;;;22.55;45.71;101567.09;4967827;28;20034;-70
2022/06/20 12:10:34;;;;;;;10.85;2.35;;;;;;;21.78;46.27;101579.38;4967325;28;20054;-69
2022/06/20 12:13:37;;;;;;;6.90;2.22;;;;;;;21.75;43.72;101581.56;4967395;28;20097;-70